Time;durP1;ratioP1;P1;durP2;ratioP2;P2;SDS_P1;SDS_P2;PMS_P1;PMS_P2;Temp;Humidity;BMP_temperature;BMP_pressure;BME280_temperature;BME280_humidity;BME280_pressure;Samples;Min_cycle;Max_cycle;Signal;HPM_P1;HPM_P2
2021/12/10 00:01:58;;;;;;;26.92;15.25;;;0.00;99.90;;;;;;5013783;28;20293;-76
2021/12/10 00:04:31;;;;;;;27.73;12.77;;;0.10;99.90;;;;;;5013837;28;20182;-75
2021/12/10 00:07:02;;;;;;;23.88;12.25;;;0.10;99.90;;;;;;5013724;28;20201;-75
2021/12/10 00:09:39;;;;;;;28.95;12.68;;;0.10;99.90;;;;;;5031507;28;20575;-74
2021/12/10 00:12:11;;;;;;;20.02;10.02;;;0.10;99.90;;;;;;5031190;28;20166;-75
2021/12/10 00:14:38;;;;;;;19.15;10.50;;;0.10;99.90;;;;;;5031265;28;20154;-75
2021/12/10 00:17:06;;;;;;;21.80;9.77;;;0.10;99.90;;;;;;5031104;28;20189;-75
2021/12/10 00:22:05;;;;;;;22.58;10.95;;;0.00;99.90;;;;;;5029891;28;20206;-75
2021/12/10 00:24:31;;;;;;;21.63;11.48;;;0.00;99.90;;;;;;5030957;28;20178;-75
2021/12/10 00:27:03;;;;;;;20.92;12.68;;;0.00;99.90;;;;;;5013244;28;20221;-75
2021/12/10 00:29:29;;;;;;;20.70;11.35;;;0.00;99.90;;;;;;5031040;28;20154;-75
2021/12/10 00:32:02;;;;;;;19.02;10.93;;;0.10;99.90;;;;;;5030898;28;20158;-75
2021/12/10 00:34:39;;;;;;;21.77;12.27;;;0.10;99.90;;;;;;5013205;28;20189;-74
2021/12/10 00:37:08;;;;;;;22.27;12.55;;;0.10;99.90;;;;;;5030769;28;20243;-75
2021/12/10 00:39:40;;;;;;;18.55;11.45;;;0.00;99.90;;;;;;5030682;28;20162;-75
2021/12/10 00:42:11;;;;;;;23.02;11.70;;;0.00;99.90;;;;;;5030710;28;20197;-75
2021/12/10 00:44:36;;;;;;;24.23;12.15;;;0.00;99.90;;;;;;5030486;28;20190;-75
2021/12/10 00:47:04;;;;;;;26.05;13.13;;;0.00;99.90;;;;;;5012932;28;20197;-75
2021/12/10 00:49:30;;;;;;;20.23;11.50;;;-0.10;99.90;;;;;;5030574;28;20222;-74
2021/12/10 00:51:56;;;;;;;21.50;11.73;;;0.00;99.90;;;;;;5030581;28;20222;-75
2021/12/10 00:54:22;;;;;;;22.23;12.45;;;0.00;99.90;;;;;;5030456;28;20158;-75
2021/12/10 00:56:49;;;;;;;20.05;11.77;;;0.00;99.90;;;;;;5030336;28;20198;-75
2021/12/10 00:59:17;;;;;;;26.40;11.20;;;0.00;99.90;;;;;;5012813;28;20189;-75
2021/12/10 01:01:44;;;;;;;26.38;11.65;;;0.00;99.90;;;;;;5012553;28;20206;-74
2021/12/10 01:04:26;;;;;;;28.25;12.68;;;0.00;99.90;;;;;;5030343;28;20154;-75
2021/12/10 01:06:58;;;;;;;22.67;11.90;;;-0.10;99.90;;;;;;5030163;28;20228;-75
2021/12/10 01:09:34;;;;;;;26.70;12.38;;;-0.10;99.90;;;;;;5011804;28;20647;-75
2021/12/10 01:12:16;;;;;;;27.05;11.93;;;-0.10;99.90;;;;;;5028829;28;20178;-75
2021/12/10 01:25:55;;;;;;;19.90;11.38;;;-0.10;99.90;;;;;;5030047;28;20253;-75
2021/12/10 01:28:22;;;;;;;26.23;11.27;;;-0.10;99.90;;;;;;5029779;28;20165;-75
2021/12/10 01:30:48;;;;;;;26.88;12.27;;;-0.10;99.90;;;;;;5029810;28;20182;-75
2021/12/10 01:33:18;;;;;;;23.92;10.80;;;-0.10;99.90;;;;;;5029860;28;20163;-74
2021/12/10 01:35:49;;;;;;;23.10;12.13;;;-0.10;99.90;;;;;;5012018;28;20682;-75
2021/12/10 01:38:15;;;;;;;23.88;11.07;;;-0.10;99.90;;;;;;5029689;28;20173;-74
2021/12/10 01:40:47;;;;;;;28.35;11.55;;;-0.10;99.90;;;;;;5012007;28;20275;-75
2021/12/10 01:43:22;;;;;;;19.30;9.82;;;-0.20;99.90;;;;;;5029738;28;20158;-74
2021/12/10 01:46:06;;;;;;;21.63;11.20;;;-0.20;99.90;;;;;;5012022;28;20667;-74
2021/12/10 01:48:39;;;;;;;27.67;11.88;;;-0.30;99.90;;;;;;5011916;28;20173;-74
2021/12/10 01:51:07;;;;;;;22.92;10.95;;;-0.30;99.90;;;;;;5029594;28;20166;-76
2021/12/10 01:53:36;;;;;;;22.23;11.00;;;-0.30;99.90;;;;;;5011889;28;20200;-75
2021/12/10 01:56:09;;;;;;;21.98;11.32;;;-0.30;99.90;;;;;;5029513;28;20204;-76
2021/12/10 01:58:35;;;;;;;22.10;10.30;;;-0.30;99.90;;;;;;5029316;28;20274;-76
2021/12/10 02:01:13;;;;;;;28.15;12.77;;;-0.30;99.90;;;;;;5029434;28;20197;-74
2021/12/10 02:03:40;;;;;;;25.95;10.30;;;-0.30;99.90;;;;;;5011789;28;20166;-75
2021/12/10 02:06:07;;;;;;;23.50;12.07;;;-0.30;99.90;;;;;;5008237;28;20195;-75
2021/12/10 02:08:34;;;;;;;24.42;12.88;;;-0.30;99.90;;;;;;4992093;28;20262;-75
2021/12/10 02:11:01;;;;;;;20.38;11.43;;;-0.30;99.90;;;;;;5009686;28;20188;-74
2021/12/10 02:13:27;;;;;;;21.20;11.70;;;-0.30;99.90;;;;;;5026302;28;20245;-75
2021/12/10 02:15:54;;;;;;;23.35;10.68;;;-0.30;99.90;;;;;;5025275;28;20190;-75
2021/12/10 02:18:21;;;;;;;23.60;13.30;;;-0.30;99.90;;;;;;5029169;28;20249;-74
2021/12/10 02:21:12;;;;;;;25.98;11.30;;;-0.40;99.90;;;;;;5031055;28;20189;-75
2021/12/10 02:23:42;;;;;;;29.45;11.63;;;-0.40;99.90;;;;;;5033301;28;20163;-75
2021/12/10 02:26:11;;;;;;;28.40;11.43;;;-0.40;99.90;;;;;;5032687;28;20194;-76
2021/12/10 02:28:39;;;;;;;21.80;10.75;;;-0.40;99.90;;;;;;5033267;28;20168;-75
2021/12/10 02:31:08;;;;;;;21.65;11.65;;;-0.40;99.90;;;;;;5015453;28;20193;-76
2021/12/10 02:33:35;;;;;;;31.33;13.75;;;-0.40;99.90;;;;;;5033157;28;20181;-75
2021/12/10 02:36:01;;;;;;;22.27;12.02;;;-0.40;99.90;;;;;;5032978;28;20205;-76
2021/12/10 02:38:27;;;;;;;26.92;12.80;;;-0.40;99.90;;;;;;5033034;28;20166;-76
2021/12/10 02:40:55;;;;;;;27.90;12.07;;;-0.50;99.90;;;;;;5032909;28;20253;-76
2021/12/10 02:43:22;;;;;;;29.63;14.55;;;-0.40;99.90;;;;;;5032869;28;20241;-76
2021/12/10 02:45:51;;;;;;;24.88;13.07;;;-0.50;99.90;;;;;;5015247;28;20169;-75
2021/12/10 02:48:18;;;;;;;26.42;13.05;;;-0.50;99.90;;;;;;5032891;28;20158;-75
2021/12/10 02:50:46;;;;;;;30.80;13.32;;;-0.50;99.90;;;;;;5032809;28;20163;-75
2021/12/10 02:53:15;;;;;;;32.17;14.50;;;-0.50;99.90;;;;;;5032663;28;20169;-75
2021/12/10 02:55:42;;;;;;;26.90;13.95;;;-0.50;99.90;;;;;;5032587;28;20155;-76
2021/12/10 02:58:12;;;;;;;29.65;14.55;;;-0.50;99.90;;;;;;5034374;28;20237;-76
2021/12/10 03:00:45;;;;;;;28.52;12.85;;;-0.40;99.90;;;;;;5032644;28;20170;-76
2021/12/10 03:03:11;;;;;;;24.83;13.43;;;-0.40;99.90;;;;;;5032524;28;20185;-75
2021/12/10 03:05:38;;;;;;;26.52;11.70;;;-0.40;99.90;;;;;;5014497;28;20170;-76
2021/12/10 03:08:04;;;;;;;28.65;13.60;;;-0.40;99.90;;;;;;5032454;28;20616;-75
2021/12/10 03:10:32;;;;;;;24.13;13.32;;;-0.30;99.90;;;;;;5032433;28;20154;-75
2021/12/10 03:12:59;;;;;;;24.45;11.48;;;-0.40;99.90;;;;;;5014639;28;20197;-76
2021/12/10 03:15:27;;;;;;;20.48;11.60;;;-0.40;99.90;;;;;;5014700;28;20162;-75
2021/12/10 03:17:55;;;;;;;20.88;11.73;;;-0.40;99.90;;;;;;5014615;28;20194;-76
2021/12/10 03:20:24;;;;;;;20.75;10.32;;;-0.40;99.90;;;;;;5013597;28;20158;-75
2021/12/10 03:22:50;;;;;;;29.48;13.32;;;-0.40;99.90;;;;;;5031402;28;20162;-76
2021/12/10 03:25:18;;;;;;;36.63;14.95;;;-0.50;99.90;;;;;;5014365;28;20170;-75
2021/12/10 03:27:45;;;;;;;25.40;14.00;;;-0.50;99.90;;;;;;5032015;28;20197;-73
2021/12/10 03:30:17;;;;;;;29.13;15.07;;;-0.60;99.90;;;;;;5032024;28;20159;-75
2021/12/10 03:32:43;;;;;;;29.35;12.85;;;-0.50;99.90;;;;;;5031106;28;20178;-75
2021/12/10 03:35:15;;;;;;;23.83;13.02;;;-0.50;99.90;;;;;;5031902;28;20166;-75
2021/12/10 03:37:45;;;;;;;30.00;13.60;;;-0.40;99.90;;;;;;5031784;28;20185;-75
2021/12/10 03:40:14;;;;;;;34.20;14.38;;;-0.40;99.90;;;;;;5014154;28;20162;-75
2021/12/10 03:42:41;;;;;;;33.47;15.07;;;-0.40;99.90;;;;;;5014093;28;20197;-75
2021/12/10 03:45:09;;;;;;;32.90;14.25;;;-0.30;99.90;;;;;;5014106;28;20194;-75
2021/12/10 03:47:35;;;;;;;26.98;13.38;;;-0.30;99.90;;;;;;5013509;28;20158;-75
2021/12/10 03:50:02;;;;;;;25.92;12.85;;;-0.30;99.90;;;;;;5013498;28;20198;-75
2021/12/10 03:52:28;;;;;;;35.05;15.77;;;-0.30;99.90;;;;;;5030548;28;20186;-75
2021/12/10 03:54:55;;;;;;;38.55;16.17;;;-0.30;99.90;;;;;;5031510;28;20169;-75
2021/12/10 03:57:21;;;;;;;25.27;13.13;;;-0.40;99.90;;;;;;5031272;28;20301;-75
2021/12/10 03:59:47;;;;;;;29.77;13.73;;;-0.40;99.90;;;;;;5030992;28;20170;-75
2021/12/10 04:02:13;;;;;;;31.73;14.23;;;-0.40;99.90;;;;;;5013563;28;20210;-75
2021/12/10 04:04:46;;;;;;;33.72;15.07;;;-0.40;99.90;;;;;;5031179;28;20150;-75
2021/12/10 04:07:23;;;;;;;32.45;13.55;;;-0.50;99.90;;;;;;5031205;28;20174;-74
2021/12/10 04:09:50;;;;;;;39.05;16.33;;;-0.60;99.90;;;;;;5031224;28;20294;-75
2021/12/10 04:12:18;;;;;;;26.67;14.15;;;-0.50;99.90;;;;;;5013528;28;20197;-75
2021/12/10 04:14:47;;;;;;;39.67;16.20;;;-0.60;99.90;;;;;;5013446;28;20177;-75
2021/12/10 04:17:14;;;;;;;32.42;14.93;;;-0.50;99.90;;;;;;5031185;28;20183;-75
2021/12/10 04:19:41;;;;;;;36.17;14.80;;;-0.50;99.90;;;;;;5031014;28;20221;-75
2021/12/10 04:22:08;;;;;;;35.88;16.15;;;-0.50;99.90;;;;;;5013331;28;20198;-75
2021/12/10 04:24:37;;;;;;;39.13;16.23;;;-0.50;99.90;;;;;;5013063;28;20166;-75
2021/12/10 04:27:07;;;;;;;34.53;14.27;;;-0.50;99.90;;;;;;5013166;28;20297;-75
2021/12/10 04:29:34;;;;;;;33.80;14.88;;;-0.50;99.90;;;;;;5030623;28;20159;-75
2021/12/10 04:32:02;;;;;;;35.88;13.73;;;-0.60;99.90;;;;;;5013123;28;20273;-75
2021/12/10 04:34:30;;;;;;;29.60;13.63;;;-0.60;99.90;;;;;;5030915;28;20161;-75
2021/12/10 04:36:59;;;;;;;32.28;14.25;;;-0.50;99.90;;;;;;5030578;28;20204;-76
2021/12/10 04:39:26;;;;;;;33.92;15.23;;;-0.50;99.90;;;;;;5030678;28;20496;-75
2021/12/10 04:41:52;;;;;;;33.65;13.65;;;-0.50;99.90;;;;;;5012729;28;20224;-75
2021/12/10 04:44:18;;;;;;;36.72;15.82;;;-0.50;99.90;;;;;;5030598;28;20169;-75
2021/12/10 04:46:44;;;;;;;36.85;15.00;;;-0.60;99.90;;;;;;5030435;28;20154;-75
2021/12/10 04:49:13;;;;;;;33.35;14.65;;;-0.60;99.90;;;;;;5030439;28;20634;-76
2021/12/10 04:51:51;;;;;;;35.38;15.75;;;-0.60;99.90;;;;;;5012728;28;20205;-76
2021/12/10 04:54:19;;;;;;;37.63;15.15;;;-0.60;99.90;;;;;;5012638;28;20205;-76
2021/12/10 04:56:45;;;;;;;40.38;13.38;;;-0.70;99.90;;;;;;5030211;28;20154;-75
2021/12/10 04:59:14;;;;;;;38.45;16.45;;;-0.70;99.90;;;;;;5029900;28;20222;-76
2021/12/10 05:01:40;;;;;;;40.80;16.30;;;-0.70;99.90;;;;;;5030057;28;20226;-75
2021/12/10 05:04:08;;;;;;;46.97;17.20;;;-0.80;99.90;;;;;;5030348;28;20177;-76
2021/12/10 05:06:35;;;;;;;39.85;15.65;;;-0.90;99.90;;;;;;5030137;28;20158;-75
2021/12/10 05:09:03;;;;;;;43.05;17.80;;;-1.00;99.90;;;;;;5030072;28;20619;-76
2021/12/10 05:11:29;;;;;;;47.38;20.05;;;-1.00;99.90;;;;;;5012286;28;20198;-76
2021/12/10 05:13:55;;;;;;;55.25;22.77;;;-1.10;99.90;;;;;;5012375;28;20181;-75
2021/12/10 05:16:25;;;;;;;51.08;18.83;;;-1.00;99.90;;;;;;5029904;28;20170;-75
2021/12/10 05:18:57;;;;;;;53.35;19.92;;;-1.10;99.90;;;;;;5029930;28;20222;-75
2021/12/10 05:21:28;;;;;;;45.95;17.00;;;-1.20;99.90;;;;;;5012069;28;20205;-74
2021/12/10 05:23:55;;;;;;;38.33;18.05;;;-1.20;99.90;;;;;;5012091;28;20174;-75
2021/12/10 05:26:22;;;;;;;39.20;16.80;;;-1.20;99.90;;;;;;5012111;28;20312;-75
2021/12/10 05:28:48;;;;;;;35.42;15.27;;;-1.20;99.90;;;;;;5029720;28;20158;-75
2021/12/10 05:31:14;;;;;;;46.40;17.40;;;-1.20;99.90;;;;;;5029550;28;20289;-75
2021/12/10 05:33:40;;;;;;;36.00;15.73;;;-1.20;99.90;;;;;;5029562;28;20170;-75
2021/12/10 05:36:07;;;;;;;37.67;14.40;;;-1.10;99.90;;;;;;5029649;28;20212;-75
2021/12/10 05:38:33;;;;;;;46.67;19.27;;;-1.10;99.90;;;;;;5029641;28;20158;-75
2021/12/10 05:41:05;;;;;;;41.15;15.05;;;-1.20;99.90;;;;;;5029321;28;20417;-75
2021/12/10 05:43:33;;;;;;;48.00;15.40;;;-1.20;99.90;;;;;;5029385;28;20210;-75
2021/12/10 05:45:59;;;;;;;45.10;15.55;;;-1.20;99.90;;;;;;5029346;28;20162;-75
2021/12/10 05:48:25;;;;;;;60.95;18.70;;;-1.20;99.90;;;;;;5029399;28;20212;-75
2021/12/10 05:50:52;;;;;;;42.17;16.20;;;-1.30;99.90;;;;;;5029439;28;20193;-76
2021/12/10 05:53:19;;;;;;;46.97;16.77;;;-1.40;99.90;;;;;;5011499;28;20233;-76
2021/12/10 05:55:45;;;;;;;40.53;14.10;;;-1.30;99.90;;;;;;5028565;28;20166;-74
2021/12/10 05:58:12;;;;;;;43.80;16.83;;;-1.40;99.90;;;;;;5028629;28;20217;-75
2021/12/10 06:00:48;;;;;;;37.22;15.95;;;-1.40;99.90;;;;;;5028878;28;20194;-75
2021/12/10 06:03:14;;;;;;;42.85;16.05;;;-1.30;99.90;;;;;;5029104;28;20164;-75
2021/12/10 06:05:41;;;;;;;42.85;15.55;;;-1.40;99.90;;;;;;5011228;28;20170;-76
2021/12/10 06:08:09;;;;;;;54.85;14.57;;;-1.50;99.90;;;;;;5011309;28;20181;-76
2021/12/10 06:10:36;;;;;;;42.83;15.50;;;-1.40;99.90;;;;;;5028813;28;20670;-75
2021/12/10 06:13:03;;;;;;;39.60;14.32;;;-1.50;99.90;;;;;;5011116;28;20173;-74
2021/12/10 06:15:29;;;;;;;36.45;14.68;;;-1.50;99.90;;;;;;5029023;28;20162;-76
2021/12/10 06:17:57;;;;;;;44.45;14.85;;;-1.50;99.90;;;;;;5028968;28;20181;-76
2021/12/10 06:20:29;;;;;;;34.70;12.88;;;-1.50;99.90;;;;;;5028688;28;20185;-76
2021/12/10 06:22:59;;;;;;;34.53;13.02;;;-1.50;99.90;;;;;;5028794;28;20216;-76
2021/12/10 06:25:29;;;;;;;39.17;15.10;;;-1.50;99.90;;;;;;5029046;28;20671;-75
2021/12/10 06:27:56;;;;;;;37.88;14.27;;;-1.60;99.90;;;;;;5011389;28;20189;-76
2021/12/10 06:30:28;;;;;;;36.97;13.73;;;-1.60;99.90;;;;;;5028864;28;20158;-76
2021/12/10 06:32:55;;;;;;;29.98;13.18;;;-1.70;99.90;;;;;;5028846;28;20166;-76
2021/12/10 06:35:23;;;;;;;38.35;15.30;;;-1.60;99.90;;;;;;5028757;28;20224;-76
2021/12/10 06:37:51;;;;;;;42.42;13.73;;;-1.60;99.90;;;;;;5028870;28;20162;-76
2021/12/10 06:40:20;;;;;;;35.00;12.98;;;-1.70;99.90;;;;;;5010924;28;20237;-75
2021/12/10 06:42:47;;;;;;;33.83;13.75;;;-1.70;99.90;;;;;;5028680;28;20186;-76
2021/12/10 06:45:17;;;;;;;31.25;13.68;;;-1.60;99.90;;;;;;5010879;28;20198;-76
2021/12/10 06:47:48;;;;;;;29.85;12.93;;;-1.70;99.90;;;;;;5028804;28;20186;-75
2021/12/10 06:50:25;;;;;;;39.58;13.68;;;-1.70;99.90;;;;;;5028565;28;20156;-75
2021/12/10 06:52:52;;;;;;;32.65;15.60;;;-1.60;99.90;;;;;;5028902;28;20154;-76
2021/12/10 06:55:20;;;;;;;43.70;14.55;;;-1.60;99.90;;;;;;5028410;28;20670;-76
2021/12/10 06:57:46;;;;;;;30.08;11.85;;;-1.60;99.90;;;;;;5022513;28;20221;-75
2021/12/10 07:00:43;;;;;;;35.00;14.90;;;-1.50;99.90;;;;;;5048730;28;20219;-76
2021/12/10 07:03:19;;;;;;;40.08;11.85;;;-1.50;99.90;;;;;;5048506;28;20162;-76
2021/12/10 07:05:45;;;;;;;35.13;11.50;;;-1.50;99.90;;;;;;5047250;28;20201;-76
2021/12/10 07:08:11;;;;;;;24.77;11.43;;;-1.50;99.90;;;;;;5049099;28;20701;-75
2021/12/10 07:10:37;;;;;;;33.63;13.68;;;-1.40;99.90;;;;;;5050603;28;20197;-76
2021/12/10 07:13:06;;;;;;;49.17;12.90;;;-1.40;99.90;;;;;;5050875;28;20181;-76
2021/12/10 07:15:41;;;;;;;31.75;13.73;;;-1.40;99.90;;;;;;5052077;28;20520;-75
2021/12/10 07:18:07;;;;;;;31.65;12.52;;;-1.40;99.90;;;;;;5050610;28;20164;-73
2021/12/10 07:20:34;;;;;;;34.17;13.75;;;-1.50;99.90;;;;;;5051949;28;20297;-76
2021/12/10 07:23:00;;;;;;;37.95;12.00;;;-1.50;99.90;;;;;;5051851;28;20279;-77
2021/12/10 07:25:27;;;;;;;29.08;13.43;;;-1.40;99.90;;;;;;5050251;28;20207;-76
2021/12/10 07:27:53;;;;;;;32.35;12.60;;;-1.40;99.90;;;;;;5050647;28;20169;-77
2021/12/10 07:30:23;;;;;;;38.60;13.40;;;-1.30;99.90;;;;;;5050526;28;20204;-77
2021/12/10 07:32:50;;;;;;;31.40;12.65;;;-1.20;99.90;;;;;;5050135;28;20188;-77
2021/12/10 07:35:16;;;;;;;34.92;12.57;;;-1.20;99.90;;;;;;5049686;28;20224;-78
2021/12/10 07:37:43;;;;;;;30.48;12.23;;;-1.10;99.90;;;;;;5050852;28;20185;-77
2021/12/10 07:40:13;;;;;;;34.25;12.75;;;-1.10;99.90;;;;;;5050179;28;20201;-77
2021/12/10 07:42:39;;;;;;;36.38;13.65;;;-1.10;99.90;;;;;;5051278;28;20193;-77
2021/12/10 07:45:08;;;;;;;39.40;13.13;;;-1.20;99.90;;;;;;5051099;28;20221;-76
2021/12/10 07:47:36;;;;;;;29.55;13.55;;;-1.10;99.90;;;;;;5050761;28;20161;-77
2021/12/10 07:50:12;;;;;;;35.03;13.52;;;-1.00;99.90;;;;;;5051029;28;20244;-76
2021/12/10 07:52:40;;;;;;;35.47;11.95;;;-0.90;99.90;;;;;;5049767;28;20295;-75
2021/12/10 07:55:10;;;;;;;28.73;12.43;;;-1.00;99.90;;;;;;5051063;28;20162;-76
2021/12/10 07:57:37;;;;;;;29.60;12.90;;;-0.90;99.90;;;;;;5049606;28;20224;-76
2021/12/10 08:00:11;;;;;;;30.75;13.57;;;-0.90;99.90;;;;;;5049609;28;20182;-76
2021/12/10 08:02:37;;;;;;;34.55;14.25;;;-1.00;99.90;;;;;;5050762;28;20208;-78
2021/12/10 08:05:05;;;;;;;34.05;15.10;;;-0.90;99.90;;;;;;5049556;28;20166;-76
2021/12/10 08:07:32;;;;;;;46.08;14.55;;;-1.00;99.90;;;;;;5050650;28;20481;-76
2021/12/10 08:09:58;;;;;;;45.30;15.70;;;-1.10;99.90;;;;;;5050849;28;20184;-78
2021/12/10 08:12:24;;;;;;;40.63;17.20;;;-1.10;99.90;;;;;;5050584;28;20189;-76
2021/12/10 08:14:53;;;;;;;52.58;16.98;;;-1.10;99.90;;;;;;5049374;28;20195;-78
2021/12/10 08:17:20;;;;;;;49.08;17.90;;;-1.10;99.90;;;;;;5049094;28;20192;-77
2021/12/10 08:19:48;;;;;;;40.35;16.63;;;-1.10;99.90;;;;;;5048774;28;20238;-78
2021/12/10 08:22:14;;;;;;;47.28;14.52;;;-0.90;99.90;;;;;;5048673;28;20303;-78
2021/12/10 08:24:41;;;;;;;40.97;15.13;;;-0.80;99.90;;;;;;5050748;28;20157;-78
2021/12/10 08:27:08;;;;;;;41.30;14.65;;;-0.80;99.90;;;;;;5049024;28;20180;-78
2021/12/10 08:29:35;;;;;;;44.10;14.45;;;-0.70;99.90;;;;;;5050567;28;20157;-77
2021/12/10 08:32:02;;;;;;;43.28;14.43;;;-0.60;99.90;;;;;;5050149;28;20197;-77
2021/12/10 08:34:29;;;;;;;45.38;15.63;;;-0.50;99.90;;;;;;5050347;28;20153;-77
2021/12/10 08:36:56;;;;;;;36.45;16.77;;;-0.40;99.90;;;;;;5050388;28;20162;-76
2021/12/10 08:39:22;;;;;;;39.53;15.07;;;-0.30;99.90;;;;;;5049104;28;20189;-77
2021/12/10 08:41:49;;;;;;;38.20;13.50;;;-0.50;99.90;;;;;;5049125;28;20209;-78
2021/12/10 08:44:15;;;;;;;33.17;15.68;;;-0.40;99.90;;;;;;5050050;28;20161;-78
2021/12/10 08:46:43;;;;;;;44.42;14.50;;;-0.40;99.90;;;;;;5050320;28;20623;-76
2021/12/10 08:49:10;;;;;;;40.67;13.95;;;-0.30;99.90;;;;;;5048810;28;20154;-78
2021/12/10 08:51:43;;;;;;;34.40;13.85;;;-0.40;99.90;;;;;;5039001;28;20265;-77
2021/12/10 08:54:10;;;;;;;37.22;14.45;;;-0.30;99.90;;;;;;5038153;28;20173;-80
2021/12/10 08:56:38;;;;;;;32.67;12.95;;;-0.30;99.90;;;;;;5048664;28;20177;-78
2021/12/10 08:59:07;;;;;;;47.88;15.45;;;-0.50;99.90;;;;;;5034661;28;20350;-76
2021/12/10 09:01:38;;;;;;;30.70;14.23;;;-0.70;99.90;;;;;;5028324;28;20730;-76
2021/12/10 09:04:06;;;;;;;39.50;13.90;;;-0.80;99.90;;;;;;5028760;28;20166;-78
2021/12/10 09:06:35;;;;;;;28.70;14.02;;;-0.90;99.90;;;;;;5033515;28;20200;-76
2021/12/10 09:09:05;;;;;;;25.75;11.77;;;-0.90;99.90;;;;;;5048361;28;20176;-77
2021/12/10 09:11:32;;;;;;;24.17;12.15;;;-0.80;99.90;;;;;;5048268;28;20201;-74
2021/12/10 09:13:58;;;;;;;33.05;12.48;;;-0.60;99.90;;;;;;5049685;28;20200;-76
2021/12/10 09:16:28;;;;;;;33.60;14.70;;;-0.50;99.90;;;;;;5048311;28;20189;-76
2021/12/10 09:18:58;;;;;;;34.58;13.90;;;-0.40;99.90;;;;;;5049560;28;20168;-76
2021/12/10 09:21:25;;;;;;;37.20;14.95;;;-0.70;99.90;;;;;;5048130;28;20205;-76
2021/12/10 09:23:53;;;;;;;45.05;16.25;;;-0.80;99.90;;;;;;5042366;28;20162;-75
2021/12/10 09:26:20;;;;;;;31.67;13.25;;;-0.80;99.90;;;;;;5028206;28;20173;-76
2021/12/10 09:28:47;;;;;;;47.55;16.65;;;-0.80;99.90;;;;;;5029762;28;20700;-75
2021/12/10 09:31:15;;;;;;;35.60;15.80;;;-0.70;99.90;;;;;;5027416;28;20202;-75
2021/12/10 09:33:42;;;;;;;51.65;15.73;;;-0.60;99.90;;;;;;5028045;28;20662;-76
2021/12/10 09:36:09;;;;;;;33.58;16.15;;;-0.60;99.90;;;;;;5029490;28;20166;-76
2021/12/10 09:38:35;;;;;;;44.05;15.60;;;-0.70;99.90;;;;;;5028177;28;20639;-75
2021/12/10 09:41:05;;;;;;;41.80;14.65;;;-0.80;99.90;;;;;;5029233;28;20201;-75
2021/12/10 09:43:33;;;;;;;37.30;13.82;;;-0.90;99.90;;;;;;5028074;28;20218;-74
2021/12/10 09:46:01;;;;;;;32.42;15.57;;;-0.80;99.90;;;;;;5029383;28;20178;-77
2021/12/10 09:48:26;;;;;;;35.78;16.80;;;-0.70;99.90;;;;;;5029490;28;20176;-76
2021/12/10 09:51:00;;;;;;;39.17;15.25;;;-0.60;99.90;;;;;;5037756;28;20197;-74
2021/12/10 09:53:28;;;;;;;44.28;16.80;;;-0.40;99.90;;;;;;5028234;28;20176;-76
2021/12/10 09:55:55;;;;;;;38.67;14.18;;;-0.20;99.90;;;;;;5047091;28;20191;-75
2021/12/10 09:58:21;;;;;;;40.88;17.65;;;0.00;99.90;;;;;;5047594;28;20222;-75
2021/12/10 10:00:59;;;;;;;47.05;16.88;;;0.30;99.90;;;;;;5047624;28;20213;-76
2021/12/10 10:03:30;;;;;;;50.15;16.60;;;0.40;99.90;;;;;;5049034;28;20161;-75
2021/12/10 10:05:56;;;;;;;43.67;14.88;;;0.10;99.90;;;;;;5048972;28;20154;-73
2021/12/10 10:08:25;;;;;;;45.80;15.07;;;-0.30;99.90;;;;;;5048684;28;20176;-75
2021/12/10 10:10:55;;;;;;;38.50;14.93;;;-0.30;99.90;;;;;;5048746;28;20193;-76
2021/12/10 10:13:26;;;;;;;42.40;13.60;;;-0.40;99.90;;;;;;5048849;28;20153;-75
2021/12/10 10:15:56;;;;;;;36.00;14.23;;;-0.50;99.90;;;;;;5048696;28;20153;-75
2021/12/10 10:18:23;;;;;;;42.17;12.70;;;-0.70;99.90;;;;;;5047524;28;20203;-75
2021/12/10 10:20:55;;;;;;;39.60;11.98;;;-0.60;99.90;;;;;;5048625;28;20189;-75
2021/12/10 10:23:21;;;;;;;39.72;14.13;;;-0.60;99.90;;;;;;5047489;28;20172;-75
2021/12/10 10:25:52;;;;;;;27.58;13.10;;;-0.60;99.90;;;;;;5047459;28;20617;-75
2021/12/10 10:28:19;;;;;;;50.00;15.00;;;-0.60;99.90;;;;;;5047391;28;20195;-75
2021/12/10 10:30:54;;;;;;;36.22;15.55;;;-0.40;99.90;;;;;;5047368;28;20665;-75
2021/12/10 10:33:21;;;;;;;34.50;13.65;;;-0.20;99.90;;;;;;5048358;28;20200;-74
2021/12/10 10:35:53;;;;;;;32.30;12.80;;;-0.20;99.90;;;;;;5048655;28;20170;-76
2021/12/10 10:38:20;;;;;;;44.55;15.48;;;-0.20;99.90;;;;;;5048713;28;20165;-75
2021/12/10 10:40:54;;;;;;;42.38;13.93;;;-0.20;99.90;;;;;;5047191;28;20628;-76
2021/12/10 10:43:21;;;;;;;41.25;12.75;;;-0.20;99.90;;;;;;5046759;28;20216;-77
2021/12/10 10:45:48;;;;;;;38.72;14.30;;;0.10;99.90;;;;;;5034350;28;20180;-76
2021/12/10 10:48:17;;;;;;;36.83;14.68;;;0.00;99.90;;;;;;5050563;28;20235;-76
2021/12/10 10:50:48;;;;;;;38.92;12.52;;;-0.10;99.90;;;;;;5047801;28;20165;-76
2021/12/10 10:53:20;;;;;;;43.22;14.13;;;0.00;99.90;;;;;;5031067;28;20194;-76
2021/12/10 10:56:00;;;;;;;43.67;15.23;;;0.00;99.90;;;;;;5031196;28;20185;-76
2021/12/10 10:58:30;;;;;;;30.08;12.32;;;0.00;99.90;;;;;;5019525;28;20226;-76
2021/12/10 11:01:14;;;;;;;34.28;13.63;;;-0.10;99.90;;;;;;5030938;28;20578;-76
2021/12/10 11:03:53;;;;;;;32.72;12.38;;;-0.10;99.90;;;;;;5032044;28;20197;-75
2021/12/10 11:06:26;;;;;;;36.63;13.30;;;-0.20;99.90;;;;;;5014657;28;20158;-76
2021/12/10 11:09:02;;;;;;;36.58;12.98;;;-0.10;99.90;;;;;;5031974;28;20280;-77
2021/12/10 11:11:35;;;;;;;39.08;14.70;;;-0.10;99.90;;;;;;5031605;28;20158;-76
2021/12/10 11:14:03;;;;;;;42.60;14.18;;;-0.10;99.90;;;;;;5031687;28;20169;-76
2021/12/10 11:16:31;;;;;;;40.75;14.50;;;0.00;99.90;;;;;;5021831;28;20191;-76
2021/12/10 11:19:09;;;;;;;33.53;12.93;;;0.00;99.90;;;;;;5026023;28;20198;-76
2021/12/10 11:21:49;;;;;;;37.63;13.48;;;-0.10;99.90;;;;;;5021740;28;20205;-78
2021/12/10 11:24:19;;;;;;;48.20;15.05;;;-0.10;99.90;;;;;;5019427;28;20246;-77
2021/12/10 11:27:03;;;;;;;42.35;14.75;;;-0.10;99.90;;;;;;5003320;28;20192;-77
2021/12/10 11:29:56;;;;;;;35.20;14.70;;;-0.30;99.90;;;;;;5022784;28;20181;-76
2021/12/10 11:32:45;;;;;;;31.30;13.18;;;-0.40;99.90;;;;;;5005331;28;20201;-76
2021/12/10 11:35:30;;;;;;;34.47;13.73;;;-0.10;99.90;;;;;;4995680;28;20254;-76
2021/12/10 11:38:04;;;;;;;49.40;14.57;;;-0.10;99.90;;;;;;5011974;28;20546;-76
2021/12/10 11:40:42;;;;;;;37.38;14.40;;;0.10;99.90;;;;;;5028247;28;20176;-76
2021/12/10 11:43:33;;;;;;;35.30;13.73;;;0.20;99.90;;;;;;5019638;28;20216;-76
2021/12/10 11:49:11;;;;;;;28.92;12.35;;;0.30;99.90;;;;;;5026911;28;20193;-76
2021/12/10 11:51:46;;;;;;;37.35;13.35;;;0.20;99.90;;;;;;5012687;28;20181;-75
2021/12/10 11:54:29;;;;;;;31.67;12.90;;;0.40;99.90;;;;;;4996840;28;20246;-77
2021/12/10 11:57:03;;;;;;;45.58;14.48;;;0.40;99.90;;;;;;4993819;28;20170;-76
2021/12/10 11:59:38;;;;;;;30.10;12.25;;;0.40;99.90;;;;;;4994427;28;20177;-76
2021/12/10 12:02:12;;;;;;;27.48;12.23;;;0.10;99.90;;;;;;5025842;28;20249;-75
2021/12/10 12:04:38;;;;;;;31.35;10.90;;;0.20;99.90;;;;;;5015493;28;20238;-76
2021/12/10 12:07:25;;;;;;;36.33;12.23;;;0.30;99.90;;;;;;5007016;28;20170;-76
2021/12/10 12:10:21;;;;;;;31.73;10.48;;;0.30;99.90;;;;;;5023858;28;20174;-77
2021/12/10 12:12:50;;;;;;;29.75;11.40;;;0.30;99.90;;;;;;4990130;28;20213;-77
2021/12/10 12:15:22;;;;;;;35.15;12.18;;;0.50;99.90;;;;;;5030556;28;20174;-76
2021/12/10 12:18:00;;;;;;;34.92;12.05;;;0.40;99.90;;;;;;4999942;28;20186;-77
2021/12/10 12:20:55;;;;;;;34.10;13.35;;;0.40;99.90;;;;;;5010200;28;20205;-77
2021/12/10 12:26:27;;;;;;;30.20;12.75;;;0.20;99.90;;;;;;4932892;29;20177;-78
2021/12/10 12:29:04;;;;;;;27.48;10.50;;;0.40;99.90;;;;;;4918567;29;20173;-77
2021/12/10 12:31:37;;;;;;;21.70;10.93;;;0.40;99.90;;;;;;4915960;29;20204;-78
2021/12/10 12:34:16;;;;;;;23.67;9.32;;;0.20;99.90;;;;;;4916352;29;20220;-78
2021/12/10 12:36:50;;;;;;;26.95;10.52;;;0.30;99.90;;;;;;4932259;29;20181;-77
2021/12/10 12:39:30;;;;;;;24.70;9.35;;;0.20;99.90;;;;;;4931918;29;20302;-77
2021/12/10 12:41:59;;;;;;;31.73;11.32;;;0.10;99.90;;;;;;4932241;29;20300;-76
2021/12/10 12:44:26;;;;;;;24.48;10.38;;;0.00;99.90;;;;;;4932286;29;20173;-77
2021/12/10 12:46:59;;;;;;;29.83;10.75;;;0.00;99.90;;;;;;4916244;29;20213;-78
2021/12/10 12:49:30;;;;;;;29.13;11.38;;;0.00;99.90;;;;;;4932693;29;20690;-77
2021/12/10 12:52:06;;;;;;;36.60;12.40;;;0.00;99.90;;;;;;4915659;29;20203;-77
2021/12/10 12:54:34;;;;;;;35.00;11.30;;;0.00;99.90;;;;;;4930400;29;20177;-76
2021/12/10 12:57:06;;;;;;;25.67;10.63;;;0.00;99.90;;;;;;4928200;29;20178;-76
2021/12/10 12:59:34;;;;;;;33.22;12.02;;;0.10;99.90;;;;;;4965571;28;20229;-75
2021/12/10 13:02:05;;;;;;;25.95;10.88;;;0.10;99.90;;;;;;5006955;28;20265;-75